sensor_id;sensor_type;location;lat;lon;timestamp;pressure;altitude;pressure_sealevel;temperature;humidity
36354;BME280;22383;51.114;13.666;2023-02-17T00:00:12;67985.41;;;7.17;100.00
36354;BME280;22383;51.114;13.666;2023-02-17T00:02:39;67984.69;;;7.21;100.00
36354;BME280;22383;51.114;13.666;2023-02-17T00:05:09;67987.50;;;7.24;100.00
36354;BME280;22383;51.114;13.666;2023-02-17T00:07:37;67987.13;;;7.26;100.00
36354;BME280;22383;51.114;13.666;2023-02-17T00:10:05;67989.56;;;7.23;100.00
36354;BME280;22383;51.114;13.666;2023-02-17T00:12:33;67984.13;;;7.21;100.00
36354;BME280;22383;51.114;13.666;2023-02-17T00:15:01;67987.13;;;7.26;100.00
36354;BME280;22383;51.114;13.666;2023-02-17T00:17:28;67983.53;;;7.20;100.00
36354;BME280;22383;51.114;13.666;2023-02-17T00:20:06;67993.16;;;7.29;100.00
36354;BME280;22383;51.114;13.666;2023-02-17T00:22:39;67989.75;;;7.26;100.00
36354;BME280;22383;51.114;13.666;2023-02-17T00:25:07;67998.41;;;7.29;100.00
36354;BME280;22383;51.114;13.666;2023-02-17T00:27:37;67989.97;;;7.28;100.00
36354;BME280;22383;51.114;13.666;2023-02-17T00:30:07;67978.66;;;7.18;100.00
36354;BME280;22383;51.114;13.666;2023-02-17T00:32:35;67981.50;;;7.21;100.00
36354;BME280;22383;51.114;13.666;2023-02-17T00:35:03;67981.50;;;7.21;100.00
36354;BME280;22383;51.114;13.666;2023-02-17T00:37:35;67982.63;;;7.22;100.00
36354;BME280;22383;51.114;13.666;2023-02-17T00:40:02;67982.22;;;7.16;100.00
36354;BME280;22383;51.114;13.666;2023-02-17T00:42:29;67982.44;;;7.19;100.00
36354;BME280;22383;51.114;13.666;2023-02-17T00:44:58;67994.66;;;7.28;100.00
36354;BME280;22383;51.114;13.666;2023-02-17T00:47:35;67992.38;;;7.26;100.00
36354;BME280;22383;51.114;13.666;2023-02-17T00:50:03;67980.91;;;7.20;100.00
36354;BME280;22383;51.114;13.666;2023-02-17T00:52:31;67984.69;;;7.21;100.00
36354;BME280;22383;51.114;13.666;2023-02-17T00:54:58;67992.97;;;7.26;100.00
36354;BME280;22383;51.114;13.666;2023-02-17T00:57:29;67993.75;;;7.29;100.00
36354;BME280;22383;51.114;13.666;2023-02-17T00:59:58;67989.75;;;7.26;100.00
36354;BME280;22383;51.114;13.666;2023-02-17T01:02:27;67988.44;;;7.22;100.00
36354;BME280;22383;51.114;13.666;2023-02-17T01:04:54;67978.66;;;7.18;100.00
36354;BME280;22383;51.114;13.666;2023-02-17T01:07:22;67978.47;;;7.15;100.00
36354;BME280;22383;51.114;13.666;2023-02-17T01:09:49;67981.28;;;7.18;100.00
36354;BME280;22383;51.114;13.666;2023-02-17T01:12:16;67978.09;;;7.17;100.00
36354;BME280;22383;51.114;13.666;2023-02-17T01:14:47;67983.53;;;7.20;100.00
36354;BME280;22383;51.114;13.666;2023-02-17T01:17:16;67977.88;;;7.15;100.00
36354;BME280;22383;51.114;13.666;2023-02-17T01:19:43;67977.88;;;7.15;100.00
36354;BME280;22383;51.114;13.666;2023-02-17T01:22:10;67985.25;;;7.22;100.00
36354;BME280;22383;51.114;13.666;2023-02-17T01:24:46;67985.81;;;7.22;100.00
36354;BME280;22383;51.114;13.666;2023-02-17T01:27:17;67980.72;;;7.17;100.00
36354;BME280;22383;51.114;13.666;2023-02-17T01:29:47;67986.19;;;7.20;100.00
36354;BME280;22383;51.114;13.666;2023-02-17T01:32:19;67982.63;;;7.22;100.00
36354;BME280;22383;51.114;13.666;2023-02-17T01:34:47;67982.22;;;7.16;100.00
36354;BME280;22383;51.114;13.666;2023-02-17T01:37:16;67983.53;;;7.20;100.00
36354;BME280;22383;51.114;13.666;2023-02-17T01:39:43;67984.47;;;7.18;100.00
36354;BME280;22383;51.114;13.666;2023-02-17T01:42:15;67979.59;;;7.16;100.00
36354;BME280;22383;51.114;13.666;2023-02-17T01:47:58;67984.47;;;7.18;100.00
36354;BME280;22383;51.114;13.666;2023-02-17T01:50:37;67980.88;;;7.13;100.00
36354;BME280;22383;51.114;13.666;2023-02-17T01:53:08;67974.69;;;7.14;100.00
36354;BME280;22383;51.114;13.666;2023-02-17T01:55:43;67976.19;;;7.13;100.00
36354;BME280;22383;51.114;13.666;2023-02-17T01:58:16;67974.13;;;7.14;100.00
36354;BME280;22383;51.114;13.666;2023-02-17T02:00:51;67977.16;;;7.19;100.00
36354;BME280;22383;51.114;13.666;2023-02-17T02:03:22;67988.81;;;7.20;100.00
36354;BME280;22383;51.114;13.666;2023-02-17T02:06:10;67985.63;;;7.19;100.00
36354;BME280;22383;51.114;13.666;2023-02-17T02:09:02;67982.63;;;7.22;100.00
36354;BME280;22383;51.114;13.666;2023-02-17T02:11:33;67983.34;;;7.17;100.00
36354;BME280;22383;51.114;13.666;2023-02-17T02:14:00;67982.78;;;7.17;100.00
36354;BME280;22383;51.114;13.666;2023-02-17T02:16:44;67982.97;;;7.19;100.00
36354;BME280;22383;51.114;13.666;2023-02-17T02:25:04;67976.19;;;7.13;100.00
36354;BME280;22383;51.114;13.666;2023-02-17T02:30:56;67984.88;;;7.24;100.00
36354;BME280;22383;51.114;13.666;2023-02-17T02:33:40;67996.00;;;7.31;100.00
36354;BME280;22383;51.114;13.666;2023-02-17T02:36:37;67988.63;;;7.25;100.00
36354;BME280;22383;51.114;13.666;2023-02-17T02:39:13;67997.13;;;7.32;100.00
36354;BME280;22383;51.114;13.666;2023-02-17T02:41:48;67998.63;;;7.31;100.00
36354;BME280;22383;51.114;13.666;2023-02-17T02:44:19;67996.00;;;7.31;100.00
36354;BME280;22383;51.114;13.666;2023-02-17T02:46:57;67995.41;;;7.31;100.00
36354;BME280;22383;51.114;13.666;2023-02-17T02:49:27;67993.38;;;7.31;100.00
36354;BME280;22383;51.114;13.666;2023-02-17T02:52:00;67991.84;;;7.25;100.00
36354;BME280;22383;51.114;13.666;2023-02-17T02:57:53;67983.91;;;7.18;100.00
36354;BME280;22383;51.114;13.666;2023-02-17T03:00:47;67990.13;;;7.24;100.00
36354;BME280;22383;51.114;13.666;2023-02-17T03:03:30;67987.50;;;7.24;100.00
36354;BME280;22383;51.114;13.666;2023-02-17T03:08:52;67983.38;;;7.25;100.00
36354;BME280;22383;51.114;13.666;2023-02-17T03:11:24;67972.22;;;7.10;100.00
36354;BME280;22383;51.114;13.666;2023-02-17T03:14:15;67975.63;;;7.13;100.00
36354;BME280;22383;51.114;13.666;2023-02-17T03:16:46;67981.84;;;7.18;100.00
36354;BME280;22383;51.114;13.666;2023-02-17T03:19:16;67980.72;;;7.17;100.00
36354;BME280;22383;51.114;13.666;2023-02-17T03:21:54;67978.47;;;7.15;100.00
36354;BME280;22383;51.114;13.666;2023-02-17T03:24:25;67981.09;;;7.15;100.00
36354;BME280;22383;51.114;13.666;2023-02-17T03:26:55;67982.97;;;7.19;100.00
36354;BME280;22383;51.114;13.666;2023-02-17T03:29:24;67983.53;;;7.20;100.00
36354;BME280;22383;51.114;13.666;2023-02-17T03:31:54;67984.88;;;7.24;100.00
36354;BME280;22383;51.114;13.666;2023-02-17T03:34:21;67984.31;;;7.23;100.00
36354;BME280;22383;51.114;13.666;2023-02-17T03:36:50;67986.19;;;7.27;100.00
36354;BME280;22383;51.114;13.666;2023-02-17T03:39:18;67982.97;;;7.19;100.00
36354;BME280;22383;51.114;13.666;2023-02-17T03:41:45;67990.13;;;7.24;100.00
36354;BME280;22383;51.114;13.666;2023-02-17T03:44:12;67994.47;;;7.32;100.00
36354;BME280;22383;51.114;13.666;2023-02-17T03:46:39;68001.44;;;7.34;100.00
36354;BME280;22383;51.114;13.666;2023-02-17T03:49:10;68005.41;;;7.37;100.00
36354;BME280;22383;51.114;13.666;2023-02-17T03:51:39;68001.44;;;7.34;100.00
36354;BME280;22383;51.114;13.666;2023-02-17T03:54:08;68000.13;;;7.30;100.00
36354;BME280;22383;51.114;13.666;2023-02-17T03:56:40;67987.13;;;7.26;100.00
36354;BME280;22383;51.114;13.666;2023-02-17T03:59:07;67985.25;;;7.22;100.00
36354;BME280;22383;51.114;13.666;2023-02-17T04:01:38;67982.44;;;7.19;100.00
36354;BME280;22383;51.114;13.666;2023-02-17T04:04:09;67968.13;;;7.11;100.00
36354;BME280;22383;51.114;13.666;2023-02-17T04:06:36;67968.84;;;7.07;100.00
36354;BME280;22383;51.114;13.666;2023-02-17T04:09:06;67964.91;;;7.03;100.00
36354;BME280;22383;51.114;13.666;2023-02-17T04:11:34;67963.19;;;6.94;100.00
36354;BME280;22383;51.114;13.666;2023-02-17T04:14:01;67941.53;;;6.79;100.00
36354;BME280;22383;51.114;13.666;2023-02-17T04:16:34;67927.56;;;6.62;100.00
36354;BME280;22383;51.114;13.666;2023-02-17T04:19:06;67914.22;;;6.52;100.00
36354;BME280;22383;51.114;13.666;2023-02-17T04:21:33;67894.81;;;6.39;100.00
36354;BME280;22383;51.114;13.666;2023-02-17T04:24:08;67885.19;;;6.31;100.00
36354;BME280;22383;51.114;13.666;2023-02-17T04:26:35;67883.31;;;6.27;100.00
36354;BME280;22383;51.114;13.666;2023-02-17T04:29:05;67865.06;;;6.15;100.00
36354;BME280;22383;51.114;13.666;2023-02-17T04:31:34;67863.56;;;6.09;100.00
36354;BME280;22383;51.114;13.666;2023-02-17T04:34:08;67863.75;;;6.11;100.00
36354;BME280;22383;51.114;13.666;2023-02-17T04:36:42;67858.28;;;6.09;100.00
36354;BME280;22383;51.114;13.666;2023-02-17T04:39:12;67861.09;;;6.04;100.00
36354;BME280;22383;51.114;13.666;2023-02-17T04:41:39;67861.09;;;6.04;100.00
36354;BME280;22383;51.114;13.666;2023-02-17T04:44:09;67863.34;;;6.06;100.00
36354;BME280;22383;51.114;13.666;2023-02-17T04:46:39;67858.84;;;6.09;100.00
36354;BME280;22383;51.114;13.666;2023-02-17T04:49:09;67863.94;;;6.14;100.00
36354;BME280;22383;51.114;13.666;2023-02-17T04:51:36;67868.25;;;6.15;100.00
36354;BME280;22383;51.114;13.666;2023-02-17T04:54:03;67863.19;;;6.11;100.00
36354;BME280;22383;51.114;13.666;2023-02-17T04:56:31;67863.75;;;6.11;100.00
36354;BME280;22383;51.114;13.666;2023-02-17T04:59:01;67869.75;;;6.14;100.00
36354;BME280;22383;51.114;13.666;2023-02-17T05:01:30;67863.38;;;6.13;100.00
36354;BME280;22383;51.114;13.666;2023-02-17T05:03:57;67868.25;;;6.15;100.00
36354;BME280;22383;51.114;13.666;2023-02-17T05:06:24;67867.69;;;6.15;100.00
36354;BME280;22383;51.114;13.666;2023-02-17T05:08:54;67871.66;;;6.18;100.00
36354;BME280;22383;51.114;13.666;2023-02-17T05:11:26;67877.28;;;6.23;100.00
36354;BME280;22383;51.114;13.666;2023-02-17T05:13:54;67885.19;;;6.31;100.00
36354;BME280;22383;51.114;13.666;2023-02-17T05:16:21;67886.53;;;6.34;100.00
36354;BME280;22383;51.114;13.666;2023-02-17T05:18:51;67891.63;;;6.39;100.00
36354;BME280;22383;51.114;13.666;2023-02-17T05:21:18;67898.75;;;6.43;100.00
36354;BME280;22383;51.114;13.666;2023-02-17T05:23:45;67891.06;;;6.38;100.00
36354;BME280;22383;51.114;13.666;2023-02-17T05:26:12;67894.25;;;6.39;100.00
36354;BME280;22383;51.114;13.666;2023-02-17T05:28:42;67890.66;;;6.33;100.00
36354;BME280;22383;51.114;13.666;2023-02-17T05:31:09;67894.25;;;6.39;100.00
36354;BME280;22383;51.114;13.666;2023-02-17T05:33:36;67896.50;;;6.41;100.00
36354;BME280;22383;51.114;13.666;2023-02-17T05:36:05;67895.38;;;6.40;100.00
36354;BME280;22383;51.114;13.666;2023-02-17T05:38:34;67891.41;;;6.36;100.00
36354;BME280;22383;51.114;13.666;2023-02-17T05:41:02;67892.75;;;6.40;100.00
36354;BME280;22383;51.114;13.666;2023-02-17T05:43:32;67897.06;;;6.41;100.00
36354;BME280;22383;51.114;13.666;2023-02-17T05:46:03;67898.75;;;6.43;100.00
36354;BME280;22383;51.114;13.666;2023-02-17T05:48:32;67898.75;;;6.43;100.00
36354;BME280;22383;51.114;13.666;2023-02-17T05:50:59;67892.75;;;6.40;100.00
36354;BME280;22383;51.114;13.666;2023-02-17T05:53:30;67900.84;;;6.42;100.00
36354;BME280;22383;51.114;13.666;2023-02-17T05:56:01;67901.59;;;6.46;100.00
36354;BME280;22383;51.114;13.666;2023-02-17T05:58:32;67895.56;;;6.42;100.00
36354;BME280;22383;51.114;13.666;2023-02-17T06:01:07;67895.19;;;6.37;100.00
36354;BME280;22383;51.114;13.666;2023-02-17T06:03:36;67896.31;;;6.38;100.00
36354;BME280;22383;51.114;13.666;2023-02-17T06:06:04;67898.56;;;6.40;100.00
36354;BME280;22383;51.114;13.666;2023-02-17T06:08:33;67910.06;;;6.53;100.00
36354;BME280;22383;51.114;13.666;2023-02-17T06:11:05;67917.41;;;6.60;100.00
36354;BME280;22383;51.114;13.666;2023-02-17T06:13:33;67911.97;;;6.57;100.00
36354;BME280;22383;51.114;13.666;2023-02-17T06:16:00;67915.16;;;6.58;100.00
36354;BME280;22383;51.114;13.666;2023-02-17T06:18:27;67922.50;;;6.65;100.00
36354;BME280;22383;51.114;13.666;2023-02-17T06:20:55;67923.84;;;6.68;100.00
36354;BME280;22383;51.114;13.666;2023-02-17T06:23:24;67925.88;;;6.68;100.00
36354;BME280;22383;51.114;13.666;2023-02-17T06:25:59;67934.94;;;6.76;100.00
36354;BME280;22383;51.114;13.666;2023-02-17T06:28:26;67937.78;;;6.78;100.00
36354;BME280;22383;51.114;13.666;2023-02-17T06:30:53;67939.09;;;6.82;100.00
36354;BME280;22383;51.114;13.666;2023-02-17T06:33:22;67934.78;;;6.80;100.00
36354;BME280;22383;51.114;13.666;2023-02-17T06:35:52;67942.28;;;6.82;100.00
36354;BME280;22383;51.114;13.666;2023-02-17T06:38:21;67948.66;;;6.84;100.00
36354;BME280;22383;51.114;13.666;2023-02-17T06:40:49;67943.41;;;6.84;100.00
36354;BME280;22383;51.114;13.666;2023-02-17T06:43:16;67941.16;;;6.81;100.00
36354;BME280;22383;51.114;13.666;2023-02-17T06:45:43;67948.50;;;6.88;100.00
36354;BME280;22383;51.114;13.666;2023-02-17T06:48:10;67955.84;;;6.95;100.00
36354;BME280;22383;51.114;13.666;2023-02-17T06:50:37;67957.34;;;6.94;100.00
36354;BME280;22383;51.114;13.666;2023-02-17T06:53:04;67952.44;;;6.92;100.00
36354;BME280;22383;51.114;13.666;2023-02-17T06:55:34;67960.19;;;6.96;100.00
36354;BME280;22383;51.114;13.666;2023-02-17T06:58:03;67954.91;;;6.96;100.00
36354;BME280;22383;51.114;13.666;2023-02-17T07:00:33;67958.31;;;6.99;100.00
36354;BME280;22383;51.114;13.666;2023-02-17T07:03:00;67960.56;;;7.02;100.00
36354;BME280;22383;51.114;13.666;2023-02-17T07:05:30;67966.94;;;7.03;100.00
36354;BME280;22383;51.114;13.666;2023-02-17T07:08:03;67970.56;;;7.08;100.00
36354;BME280;22383;51.114;13.666;2023-02-17T07:10:30;67945.19;;;7.07;100.00
36354;BME280;22383;51.114;13.666;2023-02-17T07:12:58;67962.28;;;7.03;100.00
36354;BME280;22383;51.114;13.666;2023-02-17T07:15:27;67969.41;;;7.07;100.00
36354;BME280;22383;51.114;13.666;2023-02-17T07:17:57;67970.75;;;7.11;100.00
36354;BME280;22383;51.114;13.666;2023-02-17T07:20:25;67969.97;;;7.08;100.00
36354;BME280;22383;51.114;13.666;2023-02-17T07:22:52;67970.56;;;7.08;100.00
36354;BME280;22383;51.114;13.666;2023-02-17T07:25:19;67969.97;;;7.08;100.00
36354;BME280;22383;51.114;13.666;2023-02-17T07:27:51;67976.78;;;7.14;100.00
36354;BME280;22383;51.114;13.666;2023-02-17T07:30:21;67971.31;;;7.11;100.00
36354;BME280;22383;51.114;13.666;2023-02-17T07:32:48;67978.25;;;7.13;100.00
36354;BME280;22383;51.114;13.666;2023-02-17T07:35:21;67975.63;;;7.13;100.00
36354;BME280;22383;51.114;13.666;2023-02-17T07:37:52;67976.78;;;7.14;100.00
36354;BME280;22383;51.114;13.666;2023-02-17T07:40:22;67981.66;;;7.16;100.00
36354;BME280;22383;51.114;13.666;2023-02-17T07:42:51;67979.97;;;7.14;100.00
36354;BME280;22383;51.114;13.666;2023-02-17T07:45:21;67976.59;;;7.18;100.00
36354;BME280;22383;51.114;13.666;2023-02-17T07:47:51;67987.31;;;7.21;100.00
36354;BME280;22383;51.114;13.666;2023-02-17T07:50:18;67988.63;;;7.25;100.00
36354;BME280;22383;51.114;13.666;2023-02-17T07:52:56;67992.78;;;7.31;100.00
36354;BME280;22383;51.114;13.666;2023-02-17T07:55:24;67995.06;;;7.33;100.00
36354;BME280;22383;51.114;13.666;2023-02-17T07:57:51;67997.88;;;7.35;100.00
36354;BME280;22383;51.114;13.666;2023-02-17T08:00:23;67999.94;;;7.35;100.00
36354;BME280;22383;51.114;13.666;2023-02-17T08:02:53;67999.03;;;7.36;100.00
36354;BME280;22383;51.114;13.666;2023-02-17T08:05:22;68003.69;;;7.36;100.00
36354;BME280;22383;51.114;13.666;2023-02-17T08:08:03;67999.94;;;7.35;100.00
36354;BME280;22383;51.114;13.666;2023-02-17T08:10:49;67999.94;;;7.35;100.00
36354;BME280;22383;51.114;13.666;2023-02-17T08:13:38;68001.28;;;7.38;100.00
36354;BME280;22383;51.114;13.666;2023-02-17T08:16:08;67997.88;;;7.35;100.00
36354;BME280;22383;51.114;13.666;2023-02-17T08:18:35;67998.81;;;7.34;100.00
36354;BME280;22383;51.114;13.666;2023-02-17T08:21:03;68001.06;;;7.36;100.00
36354;BME280;22383;51.114;13.666;2023-02-17T08:23:34;68003.91;;;7.38;100.00
36354;BME280;22383;51.114;13.666;2023-02-17T08:26:05;68007.88;;;7.42;100.00
36354;BME280;22383;51.114;13.666;2023-02-17T08:28:35;68006.34;;;7.43;100.00
36354;BME280;22383;51.114;13.666;2023-02-17T08:31:02;68014.47;;;7.46;100.00
36354;BME280;22383;51.114;13.666;2023-02-17T08:33:31;68015.41;;;7.51;100.00
36354;BME280;22383;51.114;13.666;2023-02-17T08:36:06;68016.34;;;7.50;100.00
36354;BME280;22383;51.114;13.666;2023-02-17T08:38:39;68019.19;;;7.52;100.00
36354;BME280;22383;51.114;13.666;2023-02-17T08:41:18;68015.78;;;7.49;100.00
36354;BME280;22383;51.114;13.666;2023-02-17T08:43:46;68023.50;;;7.54;100.00
36354;BME280;22383;51.114;13.666;2023-02-17T08:46:14;68021.81;;;7.52;100.00
36354;BME280;22383;51.114;13.666;2023-02-17T08:48:42;68019.75;;;7.53;100.00
36354;BME280;22383;51.114;13.666;2023-02-17T08:51:14;68019.19;;;7.52;100.00
36354;BME280;22383;51.114;13.666;2023-02-17T08:53:52;68018.25;;;7.54;100.00
36354;BME280;22383;51.114;13.666;2023-02-17T08:56:21;68029.91;;;7.62;100.00
36354;BME280;22383;51.114;13.666;2023-02-17T08:58:52;68040.09;;;7.71;100.00
36354;BME280;22383;51.114;13.666;2023-02-17T09:01:20;68039.91;;;7.69;100.00
36354;BME280;22383;51.114;13.666;2023-02-17T09:03:48;68016.97;;;7.72;100.00
36354;BME280;22383;51.114;13.666;2023-02-17T09:06:16;68040.66;;;7.72;100.00
36354;BME280;22383;51.114;13.666;2023-02-17T09:08:46;68053.69;;;7.84;100.00
36354;BME280;22383;51.114;13.666;2023-02-17T09:11:14;68051.41;;;7.82;100.00
36354;BME280;22383;51.114;13.666;2023-02-17T09:13:43;68055.38;;;7.85;100.00
36354;BME280;22383;51.114;13.666;2023-02-17T09:16:10;68058.19;;;7.88;100.00
36354;BME280;22383;51.114;13.666;2023-02-17T09:18:40;68066.69;;;7.95;100.00
36354;BME280;22383;51.114;13.666;2023-02-17T09:21:12;68069.69;;;8.01;100.00
36354;BME280;22383;51.114;13.666;2023-02-17T09:23:42;68076.31;;;8.04;100.00
36354;BME280;22383;51.114;13.666;2023-02-17T09:26:12;68088.75;;;8.16;100.00
36354;BME280;22383;51.114;13.666;2023-02-17T09:28:42;68091.19;;;8.13;100.00
36354;BME280;22383;51.114;13.666;2023-02-17T09:31:19;68084.78;;;8.12;100.00
36354;BME280;22383;51.114;13.666;2023-02-17T09:33:55;68097.63;;;8.21;100.00
36354;BME280;22383;51.114;13.666;2023-02-17T09:36:35;68108.00;;;8.33;100.00
36354;BME280;22383;51.114;13.666;2023-02-17T09:39:04;68112.72;;;8.40;100.00
36354;BME280;22383;51.114;13.666;2023-02-17T09:42:26;68123.84;;;8.47;100.00
36354;BME280;22383;51.114;13.666;2023-02-17T09:45:05;68127.44;;;8.53;100.00
36354;BME280;22383;51.114;13.666;2023-02-17T09:47:42;68138.00;;;8.60;100.00
36354;BME280;22383;51.114;13.666;2023-02-17T09:50:20;68157.63;;;8.76;100.00
36354;BME280;22383;51.114;13.666;2023-02-17T09:55:48;68163.69;;;8.86;100.00
36354;BME280;22383;51.114;13.666;2023-02-17T09:58:42;68179.13;;;8.95;100.00
36354;BME280;22383;51.114;13.666;2023-02-17T10:01:12;68177.06;;;8.96;100.00
36354;BME280;22383;51.114;13.666;2023-02-17T10:09:03;68171.97;;;8.91;100.00
36354;BME280;22383;51.114;13.666;2023-02-17T10:14:06;68178.75;;;8.97;100.00
36354;BME280;22383;51.114;13.666;2023-02-17T10:16:59;68179.91;;;8.98;100.00
36354;BME280;22383;51.114;13.666;2023-02-17T10:19:32;68189.53;;;9.07;100.00
36354;BME280;22383;51.114;13.666;2023-02-17T10:22:23;68183.50;;;9.04;100.00
36354;BME280;22383;51.114;13.666;2023-02-17T10:24:50;68187.28;;;9.05;100.00
36354;BME280;22383;51.114;13.666;2023-02-17T10:28:01;68201.97;;;9.18;100.00
36354;BME280;22383;51.114;13.666;2023-02-17T10:31:03;68212.19;;;9.27;100.00
36354;BME280;22383;51.114;13.666;2023-02-17T10:33:36;68225.19;;;9.39;100.00
36354;BME280;22383;51.114;13.666;2023-02-17T10:39:54;68211.81;;;9.30;100.00
36354;BME280;22383;51.114;13.666;2023-02-17T10:42:50;68223.69;;;9.40;100.00
36354;BME280;22383;51.114;13.666;2023-02-17T10:45:29;68234.81;;;9.48;100.00
36354;BME280;22383;51.114;13.666;2023-02-17T10:50:41;68244.84;;;9.55;100.00
36354;BME280;22383;51.114;13.666;2023-02-17T10:53:30;68240.50;;;9.53;100.00
36354;BME280;22383;51.114;13.666;2023-02-17T10:58:55;68226.34;;;9.40;100.00
36354;BME280;22383;51.114;13.666;2023-02-17T11:01:34;68229.38;;;9.45;100.00
36354;BME280;22383;51.114;13.666;2023-02-17T11:04:10;68212.75;;;9.28;100.00
36354;BME280;22383;51.114;13.666;2023-02-17T11:06:49;68209.91;;;9.25;100.00
36354;BME280;22383;51.114;13.666;2023-02-17T11:09:24;68204.81;;;9.21;100.00
36354;BME280;22383;51.114;13.666;2023-02-17T11:12:05;68209.91;;;9.25;100.00
36354;BME280;22383;51.114;13.666;2023-02-17T11:14:45;68198.22;;;9.17;100.00
36354;BME280;22383;51.114;13.666;2023-02-17T11:25:37;68183.31;;;9.01;100.00
36354;BME280;22383;51.114;13.666;2023-02-17T11:28:10;68185.00;;;9.03;100.00
36354;BME280;22383;51.114;13.666;2023-02-17T11:30:47;68188.38;;;9.06;100.00
36354;BME280;22383;51.114;13.666;2023-02-17T11:33:29;68195.00;;;9.17;100.00
36354;BME280;22383;51.114;13.666;2023-02-17T11:35:58;68208.97;;;9.27;100.00
36354;BME280;22383;51.114;13.666;2023-02-17T11:38:45;68217.09;;;9.30;100.00
36354;BME280;22383;51.114;13.666;2023-02-17T11:41:16;68217.84;;;9.33;100.00
36354;BME280;22383;51.114;13.666;2023-02-17T11:43:53;68222.00;;;9.39;100.00
36354;BME280;22383;51.114;13.666;2023-02-17T11:46:28;68228.03;;;9.42;100.00
36354;BME280;22383;51.114;13.666;2023-02-17T11:54:55;68247.09;;;9.57;100.00
36354;BME280;22383;51.114;13.666;2023-02-17T12:00:18;68246.72;;;9.59;100.00
36354;BME280;22383;51.114;13.666;2023-02-17T12:12:25;68269.94;;;9.80;100.00
36354;BME280;22383;51.114;13.666;2023-02-17T12:15:22;68262.59;;;9.73;100.00
36354;BME280;22383;51.114;13.666;2023-02-17T12:18:12;68279.56;;;9.89;100.00
36354;BME280;22383;51.114;13.666;2023-02-17T12:26:49;68292.06;;;10.00;100.00
36354;BME280;22383;51.114;13.666;2023-02-17T12:29:35;68298.84;;;10.06;100.00
36354;BME280;22383;51.114;13.666;2023-02-17T12:32:23;68303.38;;;10.10;100.00
36354;BME280;22383;51.114;13.666;2023-02-17T12:35:20;68305.66;;;10.12;100.00
36354;BME280;22383;51.114;13.666;2023-02-17T12:38:10;68308.13;;;10.17;100.00
36354;BME280;22383;51.114;13.666;2023-02-17T12:41:29;68321.91;;;10.25;100.00
36354;BME280;22383;51.114;13.666;2023-02-17T12:46:22;68325.31;;;10.28;100.00
36354;BME280;22383;51.114;13.666;2023-02-17T12:48:51;68326.28;;;10.33;100.00
36354;BME280;22383;51.114;13.666;2023-02-17T12:51:32;68322.47;;;10.32;100.00
36354;BME280;22383;51.114;13.666;2023-02-17T12:54:38;68330.06;;;10.34;100.00
36354;BME280;22383;51.114;13.666;2023-02-17T12:59:50;68335.34;;;10.42;100.00
36354;BME280;22383;51.114;13.666;2023-02-17T13:02:24;68341.97;;;10.45;100.00
36354;BME280;22383;51.114;13.666;2023-02-17T13:04:59;68351.97;;;10.52;100.00
36354;BME280;22383;51.114;13.666;2023-02-17T13:07:45;68355.75;;;10.60;100.00
36354;BME280;22383;51.114;13.666;2023-02-17T13:15:38;68366.31;;;10.67;100.00
36354;BME280;22383;51.114;13.666;2023-02-17T13:18:29;68335.72;;;10.61;100.00
36354;BME280;22383;51.114;13.666;2023-02-17T13:23:58;68345.34;;;10.70;100.00
36354;BME280;22383;51.114;13.666;2023-02-17T13:26:31;68371.44;;;10.72;100.00
36354;BME280;22383;51.114;13.666;2023-02-17T13:29:31;68380.50;;;10.80;100.00
36354;BME280;22383;51.114;13.666;2023-02-17T13:32:06;68365.75;;;10.88;100.00
36354;BME280;22383;51.114;13.666;2023-02-17T13:34:41;68386.75;;;10.86;100.00
36354;BME280;22383;51.114;13.666;2023-02-17T13:37:23;68378.22;;;10.78;100.00
36354;BME280;22383;51.114;13.666;2023-02-17T13:39:52;68378.44;;;10.73;100.00
36354;BME280;22383;51.114;13.666;2023-02-17T13:42:37;68364.25;;;10.68;100.00
36354;BME280;22383;51.114;13.666;2023-02-17T13:47:57;68361.41;;;10.58;100.00
36354;BME280;22383;51.114;13.666;2023-02-17T13:53:02;68340.25;;;10.65;100.00
36354;BME280;22383;51.114;13.666;2023-02-17T13:55:34;68365.19;;;10.66;100.00
36354;BME280;22383;51.114;13.666;2023-02-17T13:58:02;68367.47;;;10.68;100.00
36354;BME280;22383;51.114;13.666;2023-02-17T14:00:33;68366.31;;;10.67;100.00
36354;BME280;22383;51.114;13.666;2023-02-17T14:03:10;68363.66;;;10.67;100.00
36354;BME280;22383;51.114;13.666;2023-02-17T14:05:48;68366.53;;;10.70;100.00
36354;BME280;22383;51.114;13.666;2023-02-17T14:08:35;68371.44;;;10.72;100.00
36354;BME280;22383;51.114;13.666;2023-02-17T14:11:15;68372.00;;;10.72;100.00
36354;BME280;22383;51.114;13.666;2023-02-17T14:13:47;68374.63;;;10.72;100.00
36354;BME280;22383;51.114;13.666;2023-02-17T14:16:38;68370.50;;;10.73;100.00
36354;BME280;22383;51.114;13.666;2023-02-17T14:19:12;68375.97;;;10.76;100.00
36354;BME280;22383;51.114;13.666;2023-02-17T14:24:41;68387.31;;;10.86;100.00
36354;BME280;22383;51.114;13.666;2023-02-17T14:27:09;68387.31;;;10.86;100.00
36354;BME280;22383;51.114;13.666;2023-02-17T14:29:46;68387.88;;;10.87;100.00
36354;BME280;22383;51.114;13.666;2023-02-17T14:32:35;68390.72;;;10.89;100.00
36354;BME280;22383;51.114;13.666;2023-02-17T14:37:43;68392.59;;;10.93;100.00
36354;BME280;22383;51.114;13.666;2023-02-17T14:40:19;68389.19;;;10.90;100.00
36354;BME280;22383;51.114;13.666;2023-02-17T14:42:49;68397.31;;;10.93;100.00
36354;BME280;22383;51.114;13.666;2023-02-17T14:45:17;68395.25;;;10.93;100.00
36354;BME280;22383;51.114;13.666;2023-02-17T14:47:47;68396.94;;;10.95;100.00
36354;BME280;22383;51.114;13.666;2023-02-17T14:50:15;68396.00;;;10.96;100.00
36354;BME280;22383;51.114;13.666;2023-02-17T14:52:48;68401.47;;;10.99;100.00